sensor_id;sensor_type;location;lat;lon;timestamp;P1;durP1;ratioP1;P2;durP2;ratioP2
6420;SDS011;3243;50.958;7.012;2022-11-15T00:00:55;10.50;;;7.30;;
6420;SDS011;3243;50.958;7.012;2022-11-15T00:03:23;11.87;;;7.87;;
6420;SDS011;3243;50.958;7.012;2022-11-15T00:05:51;11.00;;;7.73;;
6420;SDS011;3243;50.958;7.012;2022-11-15T00:08:19;10.27;;;8.00;;
6420;SDS011;3243;50.958;7.012;2022-11-15T00:10:55;10.27;;;7.40;;
6420;SDS011;3243;50.958;7.012;2022-11-15T00:13:23;11.17;;;7.80;;
6420;SDS011;3243;50.958;7.012;2022-11-15T00:15:50;11.83;;;7.83;;
6420;SDS011;3243;50.958;7.012;2022-11-15T00:18:17;10.83;;;8.00;;
6420;SDS011;3243;50.958;7.012;2022-11-15T00:20:44;9.37;;;6.97;;
6420;SDS011;3243;50.958;7.012;2022-11-15T00:23:11;9.23;;;7.30;;
6420;SDS011;3243;50.958;7.012;2022-11-15T00:25:38;11.43;;;7.33;;
6420;SDS011;3243;50.958;7.012;2022-11-15T00:28:05;11.87;;;8.07;;
6420;SDS011;3243;50.958;7.012;2022-11-15T00:30:32;11.03;;;7.90;;
6420;SDS011;3243;50.958;7.012;2022-11-15T00:33:04;9.47;;;7.87;;
6420;SDS011;3243;50.958;7.012;2022-11-15T00:35:31;11.17;;;8.23;;
6420;SDS011;3243;50.958;7.012;2022-11-15T00:37:59;9.30;;;8.10;;
6420;SDS011;3243;50.958;7.012;2022-11-15T00:40:27;11.87;;;8.67;;
6420;SDS011;3243;50.958;7.012;2022-11-15T00:42:54;10.47;;;7.80;;
6420;SDS011;3243;50.958;7.012;2022-11-15T00:45:21;12.30;;;8.20;;
6420;SDS011;3243;50.958;7.012;2022-11-15T00:47:48;11.67;;;7.90;;
6420;SDS011;3243;50.958;7.012;2022-11-15T00:50:15;11.27;;;8.33;;
6420;SDS011;3243;50.958;7.012;2022-11-15T00:52:42;13.93;;;8.60;;
6420;SDS011;3243;50.958;7.012;2022-11-15T00:55:13;12.33;;;8.23;;
6420;SDS011;3243;50.958;7.012;2022-11-15T00:57:41;11.47;;;8.80;;
6420;SDS011;3243;50.958;7.012;2022-11-15T01:00:08;11.37;;;8.00;;
6420;SDS011;3243;50.958;7.012;2022-11-15T01:02:36;11.33;;;8.10;;
6420;SDS011;3243;50.958;7.012;2022-11-15T01:05:02;11.43;;;7.77;;
6420;SDS011;3243;50.958;7.012;2022-11-15T01:07:29;12.57;;;8.07;;
6420;SDS011;3243;50.958;7.012;2022-11-15T01:09:56;8.73;;;7.37;;
6420;SDS011;3243;50.958;7.012;2022-11-15T01:12:23;9.90;;;7.93;;
6420;SDS011;3243;50.958;7.012;2022-11-15T01:14:50;10.20;;;8.37;;
6420;SDS011;3243;50.958;7.012;2022-11-15T01:17:17;10.57;;;8.47;;
6420;SDS011;3243;50.958;7.012;2022-11-15T01:19:44;9.77;;;7.60;;
6420;SDS011;3243;50.958;7.012;2022-11-15T01:22:11;10.67;;;7.43;;
6420;SDS011;3243;50.958;7.012;2022-11-15T01:24:38;10.63;;;7.50;;
6420;SDS011;3243;50.958;7.012;2022-11-15T01:27:05;12.67;;;7.90;;
6420;SDS011;3243;50.958;7.012;2022-11-15T01:29:33;12.53;;;8.13;;
6420;SDS011;3243;50.958;7.012;2022-11-15T01:31:59;14.10;;;8.70;;
6420;SDS011;3243;50.958;7.012;2022-11-15T01:34:26;11.83;;;7.90;;
6420;SDS011;3243;50.958;7.012;2022-11-15T01:36:54;11.33;;;8.50;;
6420;SDS011;3243;50.958;7.012;2022-11-15T01:39:21;12.07;;;7.83;;
6420;SDS011;3243;50.958;7.012;2022-11-15T01:41:48;11.73;;;8.33;;
6420;SDS011;3243;50.958;7.012;2022-11-15T01:47:04;8.90;;;7.17;;
6420;SDS011;3243;50.958;7.012;2022-11-15T01:49:35;10.23;;;7.87;;
6420;SDS011;3243;50.958;7.012;2022-11-15T01:52:10;10.37;;;7.80;;
6420;SDS011;3243;50.958;7.012;2022-11-15T01:54:42;11.63;;;8.17;;
6420;SDS011;3243;50.958;7.012;2022-11-15T01:57:09;9.43;;;7.40;;
6420;SDS011;3243;50.958;7.012;2022-11-15T01:59:38;9.83;;;7.97;;
6420;SDS011;3243;50.958;7.012;2022-11-15T02:02:08;10.70;;;8.03;;
6420;SDS011;3243;50.958;7.012;2022-11-15T02:04:36;10.13;;;7.20;;
6420;SDS011;3243;50.958;7.012;2022-11-15T02:07:06;12.47;;;8.20;;
6420;SDS011;3243;50.958;7.012;2022-11-15T02:09:36;9.43;;;6.73;;
6420;SDS011;3243;50.958;7.012;2022-11-15T02:12:03;9.97;;;7.73;;
6420;SDS011;3243;50.958;7.012;2022-11-15T02:14:31;11.00;;;7.80;;
6420;SDS011;3243;50.958;7.012;2022-11-15T02:17:06;10.93;;;7.50;;
6420;SDS011;3243;50.958;7.012;2022-11-15T02:22:51;11.67;;;8.37;;
6420;SDS011;3243;50.958;7.012;2022-11-15T02:28:44;10.37;;;8.00;;
6420;SDS011;3243;50.958;7.012;2022-11-15T02:34:25;10.53;;;7.67;;
6420;SDS011;3243;50.958;7.012;2022-11-15T02:39:41;10.77;;;7.50;;
6420;SDS011;3243;50.958;7.012;2022-11-15T02:42:21;9.40;;;7.43;;
6420;SDS011;3243;50.958;7.012;2022-11-15T02:45:11;9.47;;;7.50;;
6420;SDS011;3243;50.958;7.012;2022-11-15T02:47:44;10.17;;;7.87;;
6420;SDS011;3243;50.958;7.012;2022-11-15T02:50:18;10.23;;;7.57;;
6420;SDS011;3243;50.958;7.012;2022-11-15T02:52:50;9.83;;;7.40;;
6420;SDS011;3243;50.958;7.012;2022-11-15T02:55:33;10.27;;;7.70;;
6420;SDS011;3243;50.958;7.012;2022-11-15T03:00:33;9.33;;;7.80;;
6420;SDS011;3243;50.958;7.012;2022-11-15T03:03:12;7.70;;;6.60;;
6420;SDS011;3243;50.958;7.012;2022-11-15T03:05:59;7.83;;;6.87;;
6420;SDS011;3243;50.958;7.012;2022-11-15T03:09:15;7.77;;;6.73;;
6420;SDS011;3243;50.958;7.012;2022-11-15T03:12:07;11.23;;;7.30;;
6420;SDS011;3243;50.958;7.012;2022-11-15T03:14:54;9.57;;;6.70;;
6420;SDS011;3243;50.958;7.012;2022-11-15T03:17:27;9.33;;;6.83;;
6420;SDS011;3243;50.958;7.012;2022-11-15T03:20:00;9.93;;;6.83;;
6420;SDS011;3243;50.958;7.012;2022-11-15T03:22:31;10.70;;;6.80;;
6420;SDS011;3243;50.958;7.012;2022-11-15T03:25:03;10.83;;;6.70;;
6420;SDS011;3243;50.958;7.012;2022-11-15T03:27:37;9.93;;;6.50;;
6420;SDS011;3243;50.958;7.012;2022-11-15T03:30:07;11.00;;;6.77;;
6420;SDS011;3243;50.958;7.012;2022-11-15T03:32:36;7.70;;;6.27;;
6420;SDS011;3243;50.958;7.012;2022-11-15T03:35:09;7.57;;;6.40;;
6420;SDS011;3243;50.958;7.012;2022-11-15T03:38:03;8.47;;;6.87;;
6420;SDS011;3243;50.958;7.012;2022-11-15T03:40:41;7.97;;;6.47;;
6420;SDS011;3243;50.958;7.012;2022-11-15T03:43:15;8.00;;;6.07;;
6420;SDS011;3243;50.958;7.012;2022-11-15T03:45:46;8.10;;;6.00;;
6420;SDS011;3243;50.958;7.012;2022-11-15T03:48:21;7.73;;;6.00;;
6420;SDS011;3243;50.958;7.012;2022-11-15T03:50:52;6.93;;;5.80;;
6420;SDS011;3243;50.958;7.012;2022-11-15T03:53:20;8.97;;;6.37;;
6420;SDS011;3243;50.958;7.012;2022-11-15T03:55:46;7.83;;;6.53;;
6420;SDS011;3243;50.958;7.012;2022-11-15T03:58:13;8.50;;;6.43;;
6420;SDS011;3243;50.958;7.012;2022-11-15T04:00:40;9.53;;;6.60;;
6420;SDS011;3243;50.958;7.012;2022-11-15T04:03:07;9.77;;;6.40;;
6420;SDS011;3243;50.958;7.012;2022-11-15T04:05:34;7.70;;;6.60;;
6420;SDS011;3243;50.958;7.012;2022-11-15T04:08:01;10.43;;;6.23;;
6420;SDS011;3243;50.958;7.012;2022-11-15T04:10:27;6.73;;;5.87;;
6420;SDS011;3243;50.958;7.012;2022-11-15T04:12:54;6.87;;;5.93;;
6420;SDS011;3243;50.958;7.012;2022-11-15T04:15:22;9.93;;;6.07;;
6420;SDS011;3243;50.958;7.012;2022-11-15T04:17:50;7.67;;;6.53;;
6420;SDS011;3243;50.958;7.012;2022-11-15T04:23:09;7.53;;;6.33;;
6420;SDS011;3243;50.958;7.012;2022-11-15T04:26:01;7.53;;;6.30;;
6420;SDS011;3243;50.958;7.012;2022-11-15T04:28:31;7.40;;;6.50;;
6420;SDS011;3243;50.958;7.012;2022-11-15T04:30:58;8.57;;;6.90;;
6420;SDS011;3243;50.958;7.012;2022-11-15T04:33:25;9.57;;;6.83;;
6420;SDS011;3243;50.958;7.012;2022-11-15T04:35:52;9.23;;;6.60;;
6420;SDS011;3243;50.958;7.012;2022-11-15T04:38:37;7.80;;;6.57;;
6420;SDS011;3243;50.958;7.012;2022-11-15T04:41:04;8.40;;;6.37;;
6420;SDS011;3243;50.958;7.012;2022-11-15T04:43:31;7.53;;;6.30;;
6420;SDS011;3243;50.958;7.012;2022-11-15T04:45:58;8.03;;;6.87;;
6420;SDS011;3243;50.958;7.012;2022-11-15T04:48:25;8.53;;;6.90;;
6420;SDS011;3243;50.958;7.012;2022-11-15T04:50:52;8.20;;;6.50;;
6420;SDS011;3243;50.958;7.012;2022-11-15T04:53:19;7.77;;;6.63;;
6420;SDS011;3243;50.958;7.012;2022-11-15T04:55:46;46.80;;;29.23;;
6420;SDS011;3243;50.958;7.012;2022-11-15T04:58:13;24.60;;;17.83;;
6420;SDS011;3243;50.958;7.012;2022-11-15T05:00:40;12.97;;;10.50;;
6420;SDS011;3243;50.958;7.012;2022-11-15T05:03:08;11.70;;;10.50;;
6420;SDS011;3243;50.958;7.012;2022-11-15T05:05:54;10.10;;;8.23;;
6420;SDS011;3243;50.958;7.012;2022-11-15T05:08:20;9.50;;;8.50;;
6420;SDS011;3243;50.958;7.012;2022-11-15T05:10:47;9.90;;;8.67;;
6420;SDS011;3243;50.958;7.012;2022-11-15T05:13:14;13.13;;;9.27;;
6420;SDS011;3243;50.958;7.012;2022-11-15T05:15:41;9.20;;;8.20;;
6420;SDS011;3243;50.958;7.012;2022-11-15T05:18:07;8.43;;;7.63;;
6420;SDS011;3243;50.958;7.012;2022-11-15T05:20:34;8.63;;;6.87;;
6420;SDS011;3243;50.958;7.012;2022-11-15T05:23:01;7.03;;;6.33;;
6420;SDS011;3243;50.958;7.012;2022-11-15T05:25:28;7.57;;;6.20;;
6420;SDS011;3243;50.958;7.012;2022-11-15T05:27:55;8.43;;;5.93;;
6420;SDS011;3243;50.958;7.012;2022-11-15T05:30:22;8.67;;;6.03;;
6420;SDS011;3243;50.958;7.012;2022-11-15T05:32:49;6.07;;;5.47;;
6420;SDS011;3243;50.958;7.012;2022-11-15T05:35:28;6.27;;;5.67;;
6420;SDS011;3243;50.958;7.012;2022-11-15T05:38:01;6.70;;;5.97;;
6420;SDS011;3243;50.958;7.012;2022-11-15T05:40:28;7.30;;;6.10;;
6420;SDS011;3243;50.958;7.012;2022-11-15T05:42:56;7.97;;;5.47;;
6420;SDS011;3243;50.958;7.012;2022-11-15T05:45:23;7.07;;;6.00;;
6420;SDS011;3243;50.958;7.012;2022-11-15T05:47:52;7.70;;;5.83;;
6420;SDS011;3243;50.958;7.012;2022-11-15T05:50:22;8.40;;;6.60;;
6420;SDS011;3243;50.958;7.012;2022-11-15T05:52:49;12.20;;;9.00;;
6420;SDS011;3243;50.958;7.012;2022-11-15T05:55:17;13.53;;;11.40;;
6420;SDS011;3243;50.958;7.012;2022-11-15T05:57:44;10.77;;;9.17;;
6420;SDS011;3243;50.958;7.012;2022-11-15T06:00:11;9.70;;;7.33;;
6420;SDS011;3243;50.958;7.012;2022-11-15T06:02:38;9.57;;;6.77;;
6420;SDS011;3243;50.958;7.012;2022-11-15T06:05:06;6.97;;;5.80;;
6420;SDS011;3243;50.958;7.012;2022-11-15T06:07:33;6.63;;;5.93;;
6420;SDS011;3243;50.958;7.012;2022-11-15T06:10:00;7.00;;;6.30;;
6420;SDS011;3243;50.958;7.012;2022-11-15T06:12:27;6.23;;;5.40;;
6420;SDS011;3243;50.958;7.012;2022-11-15T06:14:54;6.93;;;5.57;;
6420;SDS011;3243;50.958;7.012;2022-11-15T06:17:21;8.10;;;5.00;;
6420;SDS011;3243;50.958;7.012;2022-11-15T06:19:48;6.07;;;5.47;;
6420;SDS011;3243;50.958;7.012;2022-11-15T06:22:15;6.53;;;5.17;;
6420;SDS011;3243;50.958;7.012;2022-11-15T06:24:41;6.63;;;5.53;;
6420;SDS011;3243;50.958;7.012;2022-11-15T06:27:13;7.10;;;6.30;;
6420;SDS011;3243;50.958;7.012;2022-11-15T06:29:39;6.47;;;5.37;;
6420;SDS011;3243;50.958;7.012;2022-11-15T06:32:06;6.67;;;5.07;;
6420;SDS011;3243;50.958;7.012;2022-11-15T06:34:34;6.50;;;5.40;;
6420;SDS011;3243;50.958;7.012;2022-11-15T06:37:02;6.30;;;5.00;;
6420;SDS011;3243;50.958;7.012;2022-11-15T06:39:29;10.33;;;7.23;;
6420;SDS011;3243;50.958;7.012;2022-11-15T06:41:56;10.50;;;7.00;;
6420;SDS011;3243;50.958;7.012;2022-11-15T06:44:23;8.27;;;6.63;;
6420;SDS011;3243;50.958;7.012;2022-11-15T06:46:50;10.80;;;9.10;;
6420;SDS011;3243;50.958;7.012;2022-11-15T06:49:16;11.40;;;7.20;;
6420;SDS011;3243;50.958;7.012;2022-11-15T06:51:43;10.50;;;8.43;;
6420;SDS011;3243;50.958;7.012;2022-11-15T06:54:10;7.37;;;5.47;;
6420;SDS011;3243;50.958;7.012;2022-11-15T06:56:37;7.13;;;5.60;;
6420;SDS011;3243;50.958;7.012;2022-11-15T06:59:04;5.23;;;4.63;;
6420;SDS011;3243;50.958;7.012;2022-11-15T07:01:31;6.67;;;5.13;;
6420;SDS011;3243;50.958;7.012;2022-11-15T07:03:58;6.03;;;4.43;;
6420;SDS011;3243;50.958;7.012;2022-11-15T07:06:25;8.47;;;4.47;;
6420;SDS011;3243;50.958;7.012;2022-11-15T07:08:52;6.13;;;4.27;;
6420;SDS011;3243;50.958;7.012;2022-11-15T07:11:19;5.97;;;4.73;;
6420;SDS011;3243;50.958;7.012;2022-11-15T07:13:46;6.60;;;4.10;;
6420;SDS011;3243;50.958;7.012;2022-11-15T07:16:13;7.70;;;4.67;;
6420;SDS011;3243;50.958;7.012;2022-11-15T07:18:40;6.73;;;4.73;;
6420;SDS011;3243;50.958;7.012;2022-11-15T07:21:08;6.23;;;4.37;;
6420;SDS011;3243;50.958;7.012;2022-11-15T07:23:39;7.37;;;4.50;;
6420;SDS011;3243;50.958;7.012;2022-11-15T07:26:06;6.13;;;4.70;;
6420;SDS011;3243;50.958;7.012;2022-11-15T07:28:34;7.93;;;5.50;;
6420;SDS011;3243;50.958;7.012;2022-11-15T07:31:02;6.83;;;4.87;;
6420;SDS011;3243;50.958;7.012;2022-11-15T07:33:33;6.60;;;5.00;;
6420;SDS011;3243;50.958;7.012;2022-11-15T07:36:01;6.03;;;4.03;;
6420;SDS011;3243;50.958;7.012;2022-11-15T07:38:29;6.67;;;4.80;;
6420;SDS011;3243;50.958;7.012;2022-11-15T07:41:00;5.50;;;4.90;;
6420;SDS011;3243;50.958;7.012;2022-11-15T07:43:28;6.40;;;4.80;;
6420;SDS011;3243;50.958;7.012;2022-11-15T07:45:56;6.13;;;4.97;;
6420;SDS011;3243;50.958;7.012;2022-11-15T07:48:24;11.10;;;4.60;;
6420;SDS011;3243;50.958;7.012;2022-11-15T07:51:10;11.97;;;5.50;;
6420;SDS011;3243;50.958;7.012;2022-11-15T07:53:41;9.57;;;5.03;;
6420;SDS011;3243;50.958;7.012;2022-11-15T07:56:09;12.33;;;5.43;;
6420;SDS011;3243;50.958;7.012;2022-11-15T07:58:36;8.93;;;4.77;;
6420;SDS011;3243;50.958;7.012;2022-11-15T08:01:03;13.73;;;5.50;;
6420;SDS011;3243;50.958;7.012;2022-11-15T08:03:35;8.50;;;4.17;;
6420;SDS011;3243;50.958;7.012;2022-11-15T08:06:02;5.63;;;3.63;;
6420;SDS011;3243;50.958;7.012;2022-11-15T08:08:29;5.97;;;4.17;;
6420;SDS011;3243;50.958;7.012;2022-11-15T08:10:59;5.33;;;3.90;;
6420;SDS011;3243;50.958;7.012;2022-11-15T08:13:26;4.27;;;3.67;;
6420;SDS011;3243;50.958;7.012;2022-11-15T08:16:00;5.13;;;3.03;;
6420;SDS011;3243;50.958;7.012;2022-11-15T08:18:28;4.33;;;3.40;;
6420;SDS011;3243;50.958;7.012;2022-11-15T08:20:58;3.80;;;3.23;;
6420;SDS011;3243;50.958;7.012;2022-11-15T08:23:25;8.33;;;3.60;;
6420;SDS011;3243;50.958;7.012;2022-11-15T08:25:58;6.17;;;3.70;;
6420;SDS011;3243;50.958;7.012;2022-11-15T08:28:27;7.40;;;3.43;;
6420;SDS011;3243;50.958;7.012;2022-11-15T08:30:53;8.30;;;3.30;;
6420;SDS011;3243;50.958;7.012;2022-11-15T08:33:21;10.57;;;3.67;;
6420;SDS011;3243;50.958;7.012;2022-11-15T08:35:47;5.80;;;3.17;;
6420;SDS011;3243;50.958;7.012;2022-11-15T08:38:14;5.60;;;3.10;;
6420;SDS011;3243;50.958;7.012;2022-11-15T08:40:42;7.37;;;3.20;;
6420;SDS011;3243;50.958;7.012;2022-11-15T08:43:08;6.57;;;3.00;;
6420;SDS011;3243;50.958;7.012;2022-11-15T08:45:35;3.70;;;2.67;;
6420;SDS011;3243;50.958;7.012;2022-11-15T08:48:02;4.97;;;2.90;;
6420;SDS011;3243;50.958;7.012;2022-11-15T08:50:30;4.07;;;2.70;;
6420;SDS011;3243;50.958;7.012;2022-11-15T08:52:57;4.87;;;2.57;;
6420;SDS011;3243;50.958;7.012;2022-11-15T08:55:24;5.07;;;2.83;;
6420;SDS011;3243;50.958;7.012;2022-11-15T08:57:52;5.00;;;2.90;;
6420;SDS011;3243;50.958;7.012;2022-11-15T09:00:18;5.60;;;2.60;;
6420;SDS011;3243;50.958;7.012;2022-11-15T09:02:49;4.33;;;2.87;;
6420;SDS011;3243;50.958;7.012;2022-11-15T09:05:15;3.23;;;2.50;;
6420;SDS011;3243;50.958;7.012;2022-11-15T09:07:42;4.43;;;2.30;;
6420;SDS011;3243;50.958;7.012;2022-11-15T09:10:09;3.13;;;2.10;;
6420;SDS011;3243;50.958;7.012;2022-11-15T09:12:37;3.33;;;2.70;;
6420;SDS011;3243;50.958;7.012;2022-11-15T09:15:04;3.33;;;2.60;;
6420;SDS011;3243;50.958;7.012;2022-11-15T09:17:32;3.43;;;2.20;;
6420;SDS011;3243;50.958;7.012;2022-11-15T09:19:59;3.77;;;2.30;;
6420;SDS011;3243;50.958;7.012;2022-11-15T09:22:26;2.57;;;2.27;;
6420;SDS011;3243;50.958;7.012;2022-11-15T09:24:52;5.27;;;2.13;;
6420;SDS011;3243;50.958;7.012;2022-11-15T09:27:19;3.00;;;2.30;;
6420;SDS011;3243;50.958;7.012;2022-11-15T09:29:47;4.93;;;2.40;;
6420;SDS011;3243;50.958;7.012;2022-11-15T09:32:14;2.60;;;2.00;;
6420;SDS011;3243;50.958;7.012;2022-11-15T09:34:40;2.13;;;1.93;;
6420;SDS011;3243;50.958;7.012;2022-11-15T09:37:07;3.23;;;2.30;;
6420;SDS011;3243;50.958;7.012;2022-11-15T09:39:34;4.47;;;3.50;;
6420;SDS011;3243;50.958;7.012;2022-11-15T09:50:11;3.37;;;1.90;;
6420;SDS011;3243;50.958;7.012;2022-11-15T09:52:41;2.60;;;1.70;;
6420;SDS011;3243;50.958;7.012;2022-11-15T09:55:11;4.33;;;1.60;;
6420;SDS011;3243;50.958;7.012;2022-11-15T09:57:50;5.27;;;1.80;;
6420;SDS011;3243;50.958;7.012;2022-11-15T10:00:42;4.70;;;2.10;;
6420;SDS011;3243;50.958;7.012;2022-11-15T10:03:16;2.83;;;2.10;;
6420;SDS011;3243;50.958;7.012;2022-11-15T10:05:47;3.63;;;2.00;;
6420;SDS011;3243;50.958;7.012;2022-11-15T10:11:06;6.30;;;2.07;;
6420;SDS011;3243;50.958;7.012;2022-11-15T10:14:08;4.07;;;2.10;;
6420;SDS011;3243;50.958;7.012;2022-11-15T10:19:40;4.97;;;2.17;;
6420;SDS011;3243;50.958;7.012;2022-11-15T10:22:20;4.47;;;1.90;;
6420;SDS011;3243;50.958;7.012;2022-11-15T10:25:17;4.10;;;1.90;;
6420;SDS011;3243;50.958;7.012;2022-11-15T10:27:56;7.00;;;1.80;;
6420;SDS011;3243;50.958;7.012;2022-11-15T10:30:59;5.60;;;1.60;;
6420;SDS011;3243;50.958;7.012;2022-11-15T10:41:17;2.20;;;1.60;;
6420;SDS011;3243;50.958;7.012;2022-11-15T10:46:35;2.07;;;1.50;;
6420;SDS011;3243;50.958;7.012;2022-11-15T10:49:19;5.60;;;1.70;;
6420;SDS011;3243;50.958;7.012;2022-11-15T10:51:58;3.27;;;1.40;;
6420;SDS011;3243;50.958;7.012;2022-11-15T10:54:27;2.70;;;1.40;;
6420;SDS011;3243;50.958;7.012;2022-11-15T10:56:58;4.43;;;1.50;;
6420;SDS011;3243;50.958;7.012;2022-11-15T10:59:28;4.80;;;1.50;;
6420;SDS011;3243;50.958;7.012;2022-11-15T11:04:50;2.13;;;1.53;;
6420;SDS011;3243;50.958;7.012;2022-11-15T11:07:25;3.40;;;1.13;;
6420;SDS011;3243;50.958;7.012;2022-11-15T11:09:57;3.57;;;1.23;;
6420;SDS011;3243;50.958;7.012;2022-11-15T11:12:27;1.77;;;1.23;;
6420;SDS011;3243;50.958;7.012;2022-11-15T11:14:56;2.43;;;1.40;;
6420;SDS011;3243;50.958;7.012;2022-11-15T11:28:37;2.07;;;1.40;;
6420;SDS011;3243;50.958;7.012;2022-11-15T11:41:47;4.50;;;1.43;;
6420;SDS011;3243;50.958;7.012;2022-11-15T11:44:30;3.20;;;1.43;;
6420;SDS011;3243;50.958;7.012;2022-11-15T11:47:11;2.30;;;1.40;;
6420;SDS011;3243;50.958;7.012;2022-11-15T11:49:54;5.53;;;1.60;;
6420;SDS011;3243;50.958;7.012;2022-11-15T11:52:30;4.63;;;1.40;;
6420;SDS011;3243;50.958;7.012;2022-11-15T11:55:02;2.00;;;1.60;;
6420;SDS011;3243;50.958;7.012;2022-11-15T11:57:48;3.93;;;1.50;;
6420;SDS011;3243;50.958;7.012;2022-11-15T12:00:38;3.57;;;1.50;;
6420;SDS011;3243;50.958;7.012;2022-11-15T12:03:34;3.20;;;1.30;;
6420;SDS011;3243;50.958;7.012;2022-11-15T12:12:01;3.40;;;1.30;;
6420;SDS011;3243;50.958;7.012;2022-11-15T12:17:21;2.67;;;1.63;;
6420;SDS011;3243;50.958;7.012;2022-11-15T12:19:52;2.97;;;1.50;;
6420;SDS011;3243;50.958;7.012;2022-11-15T12:22:37;2.43;;;1.20;;
6420;SDS011;3243;50.958;7.012;2022-11-15T12:27:51;4.37;;;1.47;;
6420;SDS011;3243;50.958;7.012;2022-11-15T12:31:13;3.70;;;1.77;;
6420;SDS011;3243;50.958;7.012;2022-11-15T12:41:24;2.73;;;1.20;;
6420;SDS011;3243;50.958;7.012;2022-11-15T12:44:02;3.57;;;1.60;;
6420;SDS011;3243;50.958;7.012;2022-11-15T12:49:00;5.03;;;1.40;;
6420;SDS011;3243;50.958;7.012;2022-11-15T13:20:19;4.57;;;2.63;;
6420;SDS011;3243;50.958;7.012;2022-11-15T13:22:52;5.03;;;1.80;;
6420;SDS011;3243;50.958;7.012;2022-11-15T13:30:50;7.33;;;2.33;;
6420;SDS011;3243;50.958;7.012;2022-11-15T13:33:34;4.97;;;2.00;;
6420;SDS011;3243;50.958;7.012;2022-11-15T13:40:57;3.07;;;2.07;;
6420;SDS011;3243;50.958;7.012;2022-11-15T13:46:05;4.00;;;2.10;;
6420;SDS011;3243;50.958;7.012;2022-11-15T13:48:46;5.23;;;2.60;;
6420;SDS011;3243;50.958;7.012;2022-11-15T13:53:55;4.27;;;2.57;;
6420;SDS011;3243;50.958;7.012;2022-11-15T13:56:34;4.73;;;2.47;;
6420;SDS011;3243;50.958;7.012;2022-11-15T13:59:08;2.80;;;2.27;;
6420;SDS011;3243;50.958;7.012;2022-11-15T14:01:45;3.40;;;2.20;;
6420;SDS011;3243;50.958;7.012;2022-11-15T14:04:13;3.57;;;2.63;;
6420;SDS011;3243;50.958;7.012;2022-11-15T14:06:48;4.20;;;2.20;;
6420;SDS011;3243;50.958;7.012;2022-11-15T14:12:02;7.70;;;2.53;;
6420;SDS011;3243;50.958;7.012;2022-11-15T14:14:56;4.40;;;2.40;;
6420;SDS011;3243;50.958;7.012;2022-11-15T14:19:57;4.47;;;2.30;;
6420;SDS011;3243;50.958;7.012;2022-11-15T14:22:28;3.77;;;2.07;;
6420;SDS011;3243;50.958;7.012;2022-11-15T14:30:49;2.97;;;2.10;;
6420;SDS011;3243;50.958;7.012;2022-11-15T14:33:33;4.50;;;2.30;;
6420;SDS011;3243;50.958;7.012;2022-11-15T14:36:03;2.87;;;2.00;;
6420;SDS011;3243;50.958;7.012;2022-11-15T14:38:46;4.13;;;2.20;;
6420;SDS011;3243;50.958;7.012;2022-11-15T14:41:20;3.80;;;2.00;;
6420;SDS011;3243;50.958;7.012;2022-11-15T14:43:50;2.60;;;2.30;;
6420;SDS011;3243;50.958;7.012;2022-11-15T14:46:17;4.43;;;2.17;;
6420;SDS011;3243;50.958;7.012;2022-11-15T14:48:44;3.13;;;2.10;;
6420;SDS011;3243;50.958;7.012;2022-11-15T14:51:16;3.73;;;2.43;;
6420;SDS011;3243;50.958;7.012;2022-11-15T14:53:44;3.77;;;2.20;;
6420;SDS011;3243;50.958;7.012;2022-11-15T14:56:11;2.40;;;2.00;;
6420;SDS011;3243;50.958;7.012;2022-11-15T14:58:38;4.90;;;2.40;;
6420;SDS011;3243;50.958;7.012;2022-11-15T15:01:13;3.80;;;2.27;;
6420;SDS011;3243;50.958;7.012;2022-11-15T15:03:40;3.17;;;2.30;;
6420;SDS011;3243;50.958;7.012;2022-11-15T15:06:07;3.83;;;2.20;;
6420;SDS011;3243;50.958;7.012;2022-11-15T15:08:42;4.23;;;2.40;;
6420;SDS011;3243;50.958;7.012;2022-11-15T15:11:14;3.93;;;2.20;;
6420;SDS011;3243;50.958;7.012;2022-11-15T15:13:52;3.13;;;2.10;;
6420;SDS011;3243;50.958;7.012;2022-11-15T15:16:22;3.50;;;2.20;;
6420;SDS011;3243;50.958;7.012;2022-11-15T15:18:53;4.77;;;2.20;;
6420;SDS011;3243;50.958;7.012;2022-11-15T15:23:47;3.30;;;2.00;;
6420;SDS011;3243;50.958;7.012;2022-11-15T15:26:14;2.97;;;2.00;;
6420;SDS011;3243;50.958;7.012;2022-11-15T15:28:41;4.70;;;2.20;;
6420;SDS011;3243;50.958;7.012;2022-11-15T15:31:11;3.57;;;2.07;;
6420;SDS011;3243;50.958;7.012;2022-11-15T15:33:38;4.17;;;2.33;;
6420;SDS011;3243;50.958;7.012;2022-11-15T15:36:05;2.40;;;1.90;;
6420;SDS011;3243;50.958;7.012;2022-11-15T15:38:32;6.20;;;2.33;;
6420;SDS011;3243;50.958;7.012;2022-11-15T15:40:59;3.10;;;2.07;;
6420;SDS011;3243;50.958;7.012;2022-11-15T15:43:28;4.77;;;2.30;;
6420;SDS011;3243;50.958;7.012;2022-11-15T15:45:54;2.93;;;2.07;;
6420;SDS011;3243;50.958;7.012;2022-11-15T15:48:21;4.17;;;2.30;;
6420;SDS011;3243;50.958;7.012;2022-11-15T15:50:48;3.53;;;2.23;;
6420;SDS011;3243;50.958;7.012;2022-11-15T15:53:15;5.57;;;2.13;;
6420;SDS011;3243;50.958;7.012;2022-11-15T15:55:43;5.93;;;2.20;;
6420;SDS011;3243;50.958;7.012;2022-11-15T15:58:10;3.30;;;2.10;;
6420;SDS011;3243;50.958;7.012;2022-11-15T16:00:37;3.00;;;2.20;;
6420;SDS011;3243;50.958;7.012;2022-11-15T16:03:04;3.17;;;2.20;;
6420;SDS011;3243;50.958;7.012;2022-11-15T16:05:31;4.47;;;2.10;;
6420;SDS011;3243;50.958;7.012;2022-11-15T16:07:59;3.00;;;2.20;;
6420;SDS011;3243;50.958;7.012;2022-11-15T16:10:26;2.70;;;2.20;;
6420;SDS011;3243;50.958;7.012;2022-11-15T16:12:56;2.53;;;2.33;;
6420;SDS011;3243;50.958;7.012;2022-11-15T16:15:24;6.87;;;2.07;;
6420;SDS011;3243;50.958;7.012;2022-11-15T16:17:53;2.47;;;2.27;;
6420;SDS011;3243;50.958;7.012;2022-11-15T16:20:29;3.00;;;2.10;;
6420;SDS011;3243;50.958;7.012;2022-11-15T16:22:56;4.87;;;2.40;;
6420;SDS011;3243;50.958;7.012;2022-11-15T16:25:23;2.80;;;2.10;;
6420;SDS011;3243;50.958;7.012;2022-11-15T16:27:51;4.97;;;2.77;;
6420;SDS011;3243;50.958;7.012;2022-11-15T16:30:19;3.20;;;2.10;;
6420;SDS011;3243;50.958;7.012;2022-11-15T16:32:47;3.03;;;1.97;;
6420;SDS011;3243;50.958;7.012;2022-11-15T16:35:14;5.07;;;2.10;;
6420;SDS011;3243;50.958;7.012;2022-11-15T16:37:42;3.77;;;1.97;;
6420;SDS011;3243;50.958;7.012;2022-11-15T16:40:25;2.20;;;2.00;;
6420;SDS011;3243;50.958;7.012;2022-11-15T16:42:52;3.40;;;1.90;;
6420;SDS011;3243;50.958;7.012;2022-11-15T16:45:19;3.27;;;1.83;;
6420;SDS011;3243;50.958;7.012;2022-11-15T16:47:46;3.70;;;1.97;;
6420;SDS011;3243;50.958;7.012;2022-11-15T16:50:17;2.37;;;2.03;;
6420;SDS011;3243;50.958;7.012;2022-11-15T16:52:50;3.03;;;2.20;;
6420;SDS011;3243;50.958;7.012;2022-11-15T16:55:18;3.97;;;2.20;;
6420;SDS011;3243;50.958;7.012;2022-11-15T16:57:46;3.47;;;2.40;;
6420;SDS011;3243;50.958;7.012;2022-11-15T17:00:14;3.57;;;2.40;;
6420;SDS011;3243;50.958;7.012;2022-11-15T17:02:45;2.10;;;1.90;;
6420;SDS011;3243;50.958;7.012;2022-11-15T17:05:13;3.03;;;2.43;;
6420;SDS011;3243;50.958;7.012;2022-11-15T17:07:46;3.20;;;2.20;;
6420;SDS011;3243;50.958;7.012;2022-11-15T17:10:15;3.27;;;2.20;;
6420;SDS011;3243;50.958;7.012;2022-11-15T17:12:42;3.77;;;2.23;;
6420;SDS011;3243;50.958;7.012;2022-11-15T17:15:10;4.47;;;2.33;;
6420;SDS011;3243;50.958;7.012;2022-11-15T17:17:38;2.97;;;2.17;;
6420;SDS011;3243;50.958;7.012;2022-11-15T17:20:06;2.67;;;2.17;;
6420;SDS011;3243;50.958;7.012;2022-11-15T17:22:43;5.70;;;2.40;;
6420;SDS011;3243;50.958;7.012;2022-11-15T17:25:12;3.07;;;2.40;;
6420;SDS011;3243;50.958;7.012;2022-11-15T17:27:39;4.03;;;2.53;;
6420;SDS011;3243;50.958;7.012;2022-11-15T17:30:06;5.13;;;3.00;;
6420;SDS011;3243;50.958;7.012;2022-11-15T17:32:35;4.03;;;2.93;;
6420;SDS011;3243;50.958;7.012;2022-11-15T17:35:03;3.17;;;2.30;;
6420;SDS011;3243;50.958;7.012;2022-11-15T17:37:40;2.90;;;2.30;;
6420;SDS011;3243;50.958;7.012;2022-11-15T17:40:07;2.97;;;2.50;;
6420;SDS011;3243;50.958;7.012;2022-11-15T17:42:34;2.13;;;2.00;;
6420;SDS011;3243;50.958;7.012;2022-11-15T17:45:01;2.30;;;2.10;;
6420;SDS011;3243;50.958;7.012;2022-11-15T17:47:35;3.43;;;2.57;;
6420;SDS011;3243;50.958;7.012;2022-11-15T17:50:01;3.23;;;2.60;;
6420;SDS011;3243;50.958;7.012;2022-11-15T17:52:29;3.33;;;2.33;;
6420;SDS011;3243;50.958;7.012;2022-11-15T17:54:56;4.03;;;2.80;;
6420;SDS011;3243;50.958;7.012;2022-11-15T17:57:22;4.03;;;2.50;;
6420;SDS011;3243;50.958;7.012;2022-11-15T17:59:49;2.50;;;2.30;;
6420;SDS011;3243;50.958;7.012;2022-11-15T18:02:16;2.63;;;2.30;;